createdAt,value
2019-01-10T00:01:31.877Z,3.15
2019-01-10T00:04:01.543Z,3.04
2019-01-10T00:06:30.926Z,3.06
2019-01-10T00:09:00.245Z,2.98
2019-01-10T00:11:29.571Z,2.95
2019-01-10T00:13:58.892Z,2.88
2019-01-10T00:16:28.174Z,2.90
2019-01-10T00:18:57.917Z,2.98
2019-01-10T00:21:27.203Z,2.89
2019-01-10T00:23:56.513Z,2.95
2019-01-10T00:26:25.840Z,2.92
2019-01-10T00:28:55.302Z,2.89
2019-01-10T00:31:24.657Z,2.83
2019-01-10T00:33:54.003Z,2.92
2019-01-10T00:36:23.375Z,2.92
2019-01-10T00:38:52.651Z,2.95
2019-01-10T00:41:21.955Z,2.82
2019-01-10T00:43:51.299Z,2.82
2019-01-10T00:46:20.604Z,2.89
2019-01-10T00:48:49.889Z,2.85
2019-01-10T00:51:19.190Z,2.75
2019-01-10T00:53:48.470Z,2.73
2019-01-10T00:56:17.862Z,2.67
2019-01-10T00:58:47.168Z,2.67
2019-01-10T01:01:16.455Z,2.67
2019-01-10T01:03:45.749Z,2.82
2019-01-10T01:06:15.736Z,2.77
2019-01-10T01:08:45.175Z,2.74
2019-01-10T01:11:14.687Z,2.75
2019-01-10T01:13:43.975Z,2.79
2019-01-10T01:16:13.272Z,2.74
2019-01-10T01:18:42.565Z,2.70
2019-01-10T01:21:12.371Z,2.76
2019-01-10T01:23:41.679Z,2.75
2019-01-10T01:26:11.272Z,2.75
2019-01-10T01:28:40.580Z,2.85
2019-01-10T01:31:09.963Z,2.95
2019-01-10T01:33:39.240Z,2.76
2019-01-10T01:36:08.552Z,3.03
2019-01-10T01:38:37.941Z,2.86
2019-01-10T01:41:07.221Z,2.85
2019-01-10T01:43:36.528Z,2.90
2019-01-10T01:46:07.787Z,2.77
2019-01-10T01:48:37.002Z,2.52
2019-01-10T01:51:06.308Z,2.82
2019-01-10T01:53:35.836Z,2.82
2019-01-10T01:56:07.288Z,2.88
2019-01-10T01:58:38.112Z,2.90
2019-01-10T02:01:10.634Z,2.88
2019-01-10T02:03:39.940Z,2.81
2019-01-10T02:06:09.296Z,2.81
2019-01-10T02:08:38.604Z,2.73
2019-01-10T02:11:09.923Z,2.71
2019-01-10T02:13:40.544Z,2.67
2019-01-10T02:16:11.208Z,2.67
2019-01-10T02:18:42.015Z,2.73
2019-01-10T02:21:12.320Z,2.73
2019-01-10T02:23:42.773Z,2.79
2019-01-10T02:26:13.431Z,2.76
2019-01-10T02:28:43.851Z,2.73
2019-01-10T02:31:14.571Z,2.76
2019-01-10T02:33:45.416Z,2.74
2019-01-10T02:36:15.737Z,2.70
2019-01-10T02:38:46.080Z,2.73
2019-01-10T02:41:16.872Z,2.71
2019-01-10T02:43:47.420Z,2.86
2019-01-10T02:46:18.241Z,2.69
2019-01-10T02:48:48.512Z,2.86
2019-01-10T02:51:19.011Z,2.89
2019-01-10T02:53:49.293Z,2.79
2019-01-10T02:56:19.855Z,2.69
2019-01-10T02:58:50.604Z,2.64
2019-01-10T03:01:20.872Z,2.68
2019-01-10T03:03:51.345Z,2.62
2019-01-10T03:06:22.043Z,2.60
2019-01-10T03:08:52.424Z,2.71
2019-01-10T03:11:22.879Z,2.58
2019-01-10T03:13:52.934Z,2.83
2019-01-10T03:16:23.929Z,2.64
2019-01-10T03:18:54.134Z,2.63
2019-01-10T03:21:24.564Z,2.77
2019-01-10T03:23:56.243Z,2.56
2019-01-10T03:26:28.827Z,2.54
2019-01-10T03:28:58.698Z,2.63
2019-01-10T03:31:29.370Z,2.56
2019-01-10T03:34:00.148Z,2.52
2019-01-10T03:36:30.851Z,2.58
2019-01-10T03:39:01.328Z,2.49
2019-01-10T03:41:31.953Z,2.42
2019-01-10T03:44:02.677Z,2.41
2019-01-10T03:46:33.087Z,2.43
2019-01-10T03:49:03.707Z,2.35
2019-01-10T03:51:34.381Z,2.43
2019-01-10T03:54:04.961Z,2.37
2019-01-10T03:56:35.631Z,2.37
2019-01-10T03:59:06.852Z,2.36
2019-01-10T04:01:38.337Z,2.33
2019-01-10T04:04:09.151Z,2.41
2019-01-10T04:06:40.068Z,2.35
2019-01-10T04:09:09.479Z,2.31
2019-01-10T04:11:38.797Z,2.35
2019-01-10T04:14:09.504Z,2.35
2019-01-10T04:16:39.826Z,2.40
2019-01-10T04:19:10.278Z,2.36
2019-01-10T04:21:40.815Z,2.26
2019-01-10T04:24:11.249Z,2.30
2019-01-10T04:26:41.569Z,2.20
2019-01-10T04:29:12.255Z,2.28
2019-01-10T04:31:42.308Z,2.54
2019-01-10T04:34:11.628Z,2.42
2019-01-10T04:36:40.918Z,2.34
2019-01-10T04:39:10.233Z,2.30
2019-01-10T04:41:39.524Z,2.24
2019-01-10T04:44:08.854Z,2.25
2019-01-10T04:46:38.170Z,2.45
2019-01-10T04:49:07.495Z,2.28
2019-01-10T04:51:36.783Z,2.37
2019-01-10T04:54:06.243Z,2.37
2019-01-10T04:56:35.562Z,2.39
2019-01-10T04:59:05.145Z,2.44
2019-01-10T05:01:34.433Z,2.42
2019-01-10T05:04:04.088Z,2.43
2019-01-10T05:06:33.415Z,2.55
2019-01-10T05:09:02.779Z,2.41
2019-01-10T05:11:32.115Z,2.36
2019-01-10T05:14:01.385Z,2.29
2019-01-10T05:16:30.705Z,2.36
2019-01-10T05:19:00.000Z,2.44
2019-01-10T05:21:29.390Z,2.53
2019-01-10T05:23:58.716Z,2.46
2019-01-10T05:26:28.211Z,2.36
2019-01-10T05:28:57.520Z,2.44
2019-01-10T05:31:26.979Z,2.44
2019-01-10T05:33:56.301Z,2.39
2019-01-10T05:36:25.622Z,2.35
2019-01-10T05:38:55.144Z,2.29
2019-01-10T05:41:24.462Z,2.40
2019-01-10T05:43:53.753Z,2.62
2019-01-10T05:46:23.066Z,2.52
2019-01-10T05:48:52.395Z,2.53
2019-01-10T05:51:21.763Z,2.42
2019-01-10T05:53:51.076Z,2.59
2019-01-10T05:56:20.355Z,2.47
2019-01-10T05:58:49.667Z,2.39
2019-01-10T06:01:18.990Z,2.33
2019-01-10T06:03:53.138Z,2.49
2019-01-10T06:06:19.365Z,2.57
2019-01-10T06:08:48.698Z,2.38
2019-01-10T06:11:17.978Z,2.29
2019-01-10T06:13:47.302Z,2.30
2019-01-10T06:16:16.590Z,2.20
2019-01-10T06:18:45.981Z,2.17
2019-01-10T06:21:15.263Z,2.31
2019-01-10T06:23:44.585Z,2.32
2019-01-10T06:26:13.904Z,2.20
2019-01-10T06:28:45.301Z,2.12
2019-01-10T06:31:14.205Z,2.11
2019-01-10T06:33:43.528Z,2.37
2019-01-10T06:36:12.854Z,2.19
2019-01-10T06:38:42.168Z,2.19
2019-01-10T06:41:11.971Z,2.06
2019-01-10T06:43:41.257Z,2.13
2019-01-10T06:46:10.572Z,2.10
2019-01-10T06:48:39.885Z,2.06
2019-01-10T06:51:09.291Z,2.09
2019-01-10T06:53:38.591Z,2.25
2019-01-10T06:56:08.024Z,2.12
2019-01-10T06:58:37.359Z,2.50
2019-01-10T07:01:06.772Z,2.33
2019-01-10T07:03:36.063Z,2.38
2019-01-10T07:06:05.445Z,2.32
2019-01-10T07:08:34.763Z,2.25
2019-01-10T07:11:04.142Z,2.12
2019-01-10T07:13:33.825Z,2.02
2019-01-10T07:16:03.160Z,2.09
2019-01-10T07:18:32.701Z,2.11
2019-01-10T07:21:02.213Z,2.09
2019-01-10T07:23:31.492Z,2.09
2019-01-10T07:26:00.910Z,2.01
2019-01-10T07:28:30.382Z,1.97
2019-01-10T07:31:00.152Z,2.00
2019-01-10T07:33:29.465Z,2.05
2019-01-10T07:35:59.126Z,1.99
2019-01-10T07:38:28.861Z,2.13
2019-01-10T07:40:58.242Z,2.33
2019-01-10T07:43:27.617Z,2.13
2019-01-10T07:46:00.158Z,2.18
2019-01-10T07:48:29.490Z,2.15
2019-01-10T07:50:58.778Z,2.12
2019-01-10T07:53:28.177Z,2.12
2019-01-10T07:55:57.451Z,2.10
2019-01-10T07:58:26.786Z,2.08
2019-01-10T08:00:56.104Z,2.02
2019-01-10T08:03:25.404Z,2.03
2019-01-10T08:05:54.704Z,2.07
2019-01-10T08:08:23.996Z,2.03
2019-01-10T08:10:53.307Z,2.13
2019-01-10T08:13:22.598Z,2.10
2019-01-10T08:15:51.920Z,2.06
2019-01-10T08:18:21.235Z,2.07
2019-01-10T08:20:50.925Z,2.10
2019-01-10T08:23:20.234Z,2.48
2019-01-10T08:25:49.528Z,2.68
2019-01-10T08:28:18.868Z,2.42
2019-01-10T08:30:48.306Z,2.56
2019-01-10T08:33:18.002Z,2.64
2019-01-10T08:35:47.658Z,2.53
2019-01-10T08:38:17.007Z,2.32
2019-01-10T08:40:46.303Z,2.32
2019-01-10T08:43:15.633Z,2.33
2019-01-10T08:45:44.956Z,2.35
2019-01-10T08:48:14.936Z,2.63
2019-01-10T08:50:44.448Z,2.35
2019-01-10T08:53:13.840Z,2.33
2019-01-10T08:55:43.123Z,2.35
2019-01-10T08:58:12.448Z,2.25
2019-01-10T09:00:42.140Z,2.32
2019-01-10T09:03:11.454Z,2.44
2019-01-10T09:05:40.767Z,2.45
2019-01-10T09:08:10.126Z,2.23
2019-01-10T09:10:40.563Z,2.26
2019-01-10T09:13:10.389Z,2.40
2019-01-10T09:15:39.707Z,2.30
2019-01-10T09:18:09.445Z,2.59
2019-01-10T09:20:38.771Z,2.47
2019-01-10T09:23:08.063Z,2.33
2019-01-10T09:25:37.386Z,2.36
2019-01-10T09:28:06.686Z,2.35
2019-01-10T09:30:36.009Z,2.28
2019-01-10T09:33:06.444Z,2.26
2019-01-10T09:35:35.772Z,2.09
2019-01-10T09:38:05.332Z,2.46
2019-01-10T09:40:34.661Z,2.55
2019-01-10T09:43:04.141Z,2.53
2019-01-10T09:45:33.608Z,2.50
2019-01-10T09:48:03.207Z,2.54
2019-01-10T09:50:32.524Z,2.80
2019-01-10T09:53:02.010Z,2.56
2019-01-10T09:55:31.375Z,2.57
2019-01-10T09:58:00.665Z,2.66
2019-01-10T10:00:30.657Z,2.53
2019-01-10T10:03:00.340Z,2.64
2019-01-10T10:05:29.971Z,2.57
2019-01-10T10:07:59.292Z,2.88
2019-01-10T10:10:29.023Z,2.81
2019-01-10T10:12:58.358Z,2.91
2019-01-10T10:15:27.656Z,2.84
2019-01-10T10:17:56.988Z,2.77
2019-01-10T10:20:26.847Z,2.73
2019-01-10T10:22:56.158Z,2.91
2019-01-10T10:25:26.140Z,2.84
2019-01-10T10:27:55.842Z,2.91
2019-01-10T10:30:25.808Z,3.11
2019-01-10T10:32:55.202Z,2.86
2019-01-10T10:35:25.152Z,2.84
2019-01-10T10:37:54.527Z,3.19
2019-01-10T10:40:23.952Z,2.89
2019-01-10T10:42:53.624Z,2.95
2019-01-10T10:45:23.351Z,3.13
2019-01-10T10:47:52.737Z,3.70
2019-01-10T10:50:25.039Z,3.86
2019-01-10T10:52:54.340Z,3.73
2019-01-10T10:55:23.722Z,3.39
2019-01-10T10:57:53.995Z,3.23
2019-01-10T11:00:28.576Z,3.82
2019-01-10T11:02:58.416Z,3.51
2019-01-10T11:05:27.983Z,3.61
2019-01-10T11:07:57.360Z,3.46
2019-01-10T11:10:26.768Z,3.37
2019-01-10T11:12:56.194Z,3.60
2019-01-10T11:15:25.783Z,3.52
2019-01-10T11:17:55.456Z,3.44
2019-01-10T11:20:25.012Z,3.24
2019-01-10T11:22:54.605Z,3.26
2019-01-10T11:25:24.788Z,3.23
2019-01-10T11:27:54.818Z,3.14
2019-01-10T11:30:24.282Z,2.99
2019-01-10T11:32:53.995Z,3.13
2019-01-10T11:35:23.866Z,3.21
2019-01-10T11:37:53.267Z,3.10
2019-01-10T11:40:23.370Z,3.31
2019-01-10T11:42:52.791Z,3.07
2019-01-10T11:45:23.642Z,3.13
2019-01-10T11:47:52.946Z,3.03
2019-01-10T11:50:22.399Z,3.41
2019-01-10T11:52:51.755Z,3.27
2019-01-10T11:55:21.593Z,3.32
2019-01-10T11:57:51.151Z,3.54
2019-01-10T12:00:23.479Z,3.40
2019-01-10T12:02:53.130Z,3.22
2019-01-10T12:05:22.515Z,3.34
2019-01-10T12:07:51.882Z,3.48
2019-01-10T12:10:21.547Z,3.51
2019-01-10T12:12:51.009Z,3.43
2019-01-10T12:15:20.481Z,3.45
2019-01-10T12:17:49.782Z,3.47
2019-01-10T12:20:20.103Z,3.53
2019-01-10T12:22:50.092Z,3.68
2019-01-10T12:25:20.180Z,3.60
2019-01-10T12:27:49.824Z,3.53
2019-01-10T12:30:24.202Z,3.78
2019-01-10T12:32:53.889Z,3.48
2019-01-10T12:35:24.833Z,3.42
2019-01-10T12:37:54.507Z,3.35
2019-01-10T12:40:23.821Z,3.48
2019-01-10T12:42:53.194Z,3.78
2019-01-10T12:45:22.614Z,3.75
2019-01-10T12:47:52.194Z,3.90
2019-01-10T12:50:29.256Z,3.81
2019-01-10T12:52:58.560Z,3.94
2019-01-10T12:55:28.358Z,3.82
2019-01-10T12:57:57.751Z,3.79
2019-01-10T13:00:27.105Z,3.74
2019-01-10T13:02:57.244Z,3.81
2019-01-10T13:05:26.858Z,4.04
2019-01-10T13:08:03.339Z,3.72
2019-01-10T13:10:27.195Z,3.84
2019-01-10T13:12:56.504Z,3.79
2019-01-10T13:15:26.544Z,4.05
2019-01-10T13:17:55.836Z,3.59
2019-01-10T13:20:25.574Z,3.57
2019-01-10T13:22:54.956Z,3.42
2019-01-10T13:25:24.247Z,3.27
2019-01-10T13:27:53.834Z,3.62
2019-01-10T13:30:24.690Z,3.26
2019-01-10T13:32:54.724Z,3.35
2019-01-10T13:35:24.483Z,3.28
2019-01-10T13:37:54.110Z,3.24
2019-01-10T13:40:24.344Z,3.15
2019-01-10T13:42:54.111Z,3.20
2019-01-10T13:45:23.991Z,3.25
2019-01-10T13:47:54.070Z,3.28
2019-01-10T13:50:25.695Z,3.26
2019-01-10T13:52:55.609Z,3.39
2019-01-10T13:55:25.315Z,3.51
2019-01-10T13:57:55.151Z,3.63
2019-01-10T14:00:32.168Z,3.42
2019-01-10T14:03:00.230Z,3.54
2019-01-10T14:05:30.401Z,3.66
2019-01-10T14:08:00.184Z,3.54
2019-01-10T14:10:30.276Z,3.40
2019-01-10T14:12:59.743Z,3.34
2019-01-10T14:15:30.856Z,3.28
2019-01-10T14:18:00.257Z,3.28
2019-01-10T14:20:29.625Z,3.35
2019-01-10T14:22:59.223Z,3.25
2019-01-10T14:25:29.052Z,3.26
2019-01-10T14:27:59.848Z,3.20
2019-01-10T14:30:32.353Z,3.12
2019-01-10T14:33:02.579Z,3.10
2019-01-10T14:35:32.230Z,3.14
2019-01-10T14:38:01.625Z,3.10
2019-01-10T14:40:32.082Z,3.07
2019-01-10T14:43:01.405Z,3.06
2019-01-10T14:45:31.248Z,3.05
2019-01-10T14:48:02.074Z,3.01
2019-01-10T14:50:31.570Z,2.96
2019-01-10T14:53:01.196Z,2.98
2019-01-10T14:55:30.571Z,3.08
2019-01-10T14:57:59.981Z,2.99
2019-01-10T15:00:29.281Z,2.99
2019-01-10T15:02:58.750Z,3.00
2019-01-10T15:05:34.151Z,2.92
2019-01-10T15:07:59.148Z,2.89
2019-01-10T15:10:28.441Z,3.06
2019-01-10T15:12:57.773Z,2.97
2019-01-10T15:15:27.181Z,2.86
2019-01-10T15:17:56.546Z,2.85
2019-01-10T15:20:28.434Z,2.82
2019-01-10T15:22:58.405Z,2.72
2019-01-10T15:25:27.796Z,2.76
2019-01-10T15:27:57.255Z,2.95
2019-01-10T15:30:27.621Z,2.79
2019-01-10T15:32:57.079Z,2.79
2019-01-10T15:35:26.667Z,2.70
2019-01-10T15:37:56.055Z,2.70
2019-01-10T15:40:30.411Z,2.68
2019-01-10T15:42:59.802Z,2.74
2019-01-10T15:45:29.413Z,2.64
2019-01-10T15:47:58.782Z,2.68
2019-01-10T15:50:28.119Z,2.69
2019-01-10T15:52:57.482Z,2.72
2019-01-10T15:55:26.955Z,2.75
2019-01-10T15:57:56.280Z,2.82
2019-01-10T16:00:25.660Z,2.59
2019-01-10T16:02:55.035Z,2.52
2019-01-10T16:05:24.377Z,2.61
2019-01-10T16:07:53.756Z,2.63
2019-01-10T16:10:23.131Z,2.73
2019-01-10T16:12:52.543Z,2.97
2019-01-10T16:15:25.265Z,3.08
2019-01-10T16:17:54.853Z,2.96
2019-01-10T16:20:24.399Z,3.01
2019-01-10T16:22:54.270Z,2.64
2019-01-10T16:25:23.613Z,2.74
2019-01-10T16:27:52.925Z,2.68
2019-01-10T16:30:25.312Z,2.76
2019-01-10T16:32:54.728Z,2.81
2019-01-10T16:35:24.118Z,2.85
2019-01-10T16:37:53.520Z,2.72
2019-01-10T16:40:23.670Z,2.74
2019-01-10T16:42:53.430Z,2.77
2019-01-10T16:45:28.261Z,2.62
2019-01-10T16:47:57.576Z,2.59
2019-01-10T16:50:26.911Z,2.54
2019-01-10T16:52:56.276Z,2.37
2019-01-10T16:55:25.677Z,2.33
2019-01-10T16:57:54.971Z,2.30
2019-01-10T17:00:30.185Z,2.39
2019-01-10T17:02:59.820Z,2.37
2019-01-10T17:05:29.219Z,2.32
2019-01-10T17:07:59.210Z,2.30
2019-01-10T17:10:28.528Z,2.28
2019-01-10T17:12:57.906Z,2.33
2019-01-10T17:15:27.312Z,2.42
2019-01-10T17:17:56.611Z,2.33
2019-01-10T17:20:26.776Z,2.42
2019-01-10T17:22:56.071Z,2.34
2019-01-10T17:25:25.474Z,2.48
2019-01-10T17:27:54.876Z,2.22
2019-01-10T17:30:26.412Z,2.47
2019-01-10T17:32:55.822Z,2.45
2019-01-10T17:35:30.381Z,2.51
2019-01-10T17:37:59.985Z,2.73
2019-01-10T17:40:29.555Z,2.82
2019-01-10T17:42:59.345Z,2.68
2019-01-10T17:45:31.328Z,2.70
2019-01-10T17:48:00.652Z,2.75
2019-01-10T17:50:30.114Z,2.80
2019-01-10T17:52:59.491Z,2.84
2019-01-10T17:55:28.808Z,2.77
2019-01-10T17:57:58.200Z,2.75
2019-01-10T18:00:29.909Z,2.67
2019-01-10T18:02:59.243Z,2.59
2019-01-10T18:05:28.775Z,2.60
2019-01-10T18:07:58.188Z,2.58
2019-01-10T18:10:28.025Z,2.63
2019-01-10T18:12:57.419Z,2.66
2019-01-10T18:15:27.345Z,2.74
2019-01-10T18:17:56.709Z,2.80
2019-01-10T18:20:33.234Z,2.79
2019-01-10T18:23:02.649Z,2.77
2019-01-10T18:25:32.122Z,2.71
2019-01-10T18:28:01.661Z,2.75
2019-01-10T18:30:32.103Z,2.85
2019-01-10T18:33:01.502Z,2.81
2019-01-10T18:35:31.063Z,2.76
2019-01-10T18:38:00.465Z,2.70
2019-01-10T18:40:29.938Z,2.73
2019-01-10T18:42:59.251Z,2.77
2019-01-10T18:45:31.031Z,2.78
2019-01-10T18:48:00.425Z,2.73
2019-01-10T18:50:29.868Z,2.75
2019-01-10T18:52:59.469Z,2.80
2019-01-10T18:55:28.994Z,2.87
2019-01-10T18:57:58.851Z,2.88
2019-01-10T19:00:29.330Z,2.80
2019-01-10T19:02:59.588Z,2.82
2019-01-10T19:05:29.006Z,2.84
2019-01-10T19:07:58.659Z,2.74
2019-01-10T19:10:28.063Z,2.74
2019-01-10T19:12:57.394Z,2.61
2019-01-10T19:15:26.835Z,2.73
2019-01-10T19:17:56.158Z,2.69
2019-01-10T19:20:27.407Z,2.74
2019-01-10T19:22:57.803Z,2.71
2019-01-10T19:25:27.143Z,2.62
2019-01-10T19:27:56.496Z,2.70
2019-01-10T19:30:28.478Z,2.73
2019-01-10T19:32:58.048Z,2.70
2019-01-10T19:35:27.379Z,2.74
2019-01-10T19:37:56.755Z,2.77
2019-01-10T19:40:26.102Z,2.80
2019-01-10T19:42:55.592Z,2.84
2019-01-10T19:45:25.127Z,2.75
2019-01-10T19:47:54.455Z,2.74
2019-01-10T19:50:25.503Z,2.65
2019-01-10T19:52:55.454Z,2.73
2019-01-10T19:55:24.753Z,2.76
2019-01-10T19:57:54.079Z,2.79
2019-01-10T20:00:29.744Z,2.77
2019-01-10T20:02:59.351Z,2.89
2019-01-10T20:05:28.808Z,2.89
2019-01-10T20:07:58.381Z,2.87
2019-01-10T20:10:27.843Z,2.88
2019-01-10T20:12:57.224Z,2.84
2019-01-10T20:15:26.623Z,2.87
2019-01-10T20:17:57.134Z,2.92
2019-01-10T20:20:29.394Z,2.95
2019-01-10T20:22:58.974Z,2.98
2019-01-10T20:25:28.369Z,2.95
2019-01-10T20:27:57.700Z,2.91
2019-01-10T20:30:26.996Z,2.97
2019-01-10T20:32:56.366Z,2.97
2019-01-10T20:35:25.757Z,2.91
2019-01-10T20:37:55.041Z,2.95
2019-01-10T20:40:24.513Z,2.95
2019-01-10T20:42:53.817Z,2.91
2019-01-10T20:45:23.144Z,2.94
2019-01-10T20:47:52.478Z,2.95
2019-01-10T20:50:21.942Z,2.89
2019-01-10T20:52:51.275Z,3.02
2019-01-10T20:55:20.766Z,3.06
2019-01-10T20:57:50.164Z,3.00
2019-01-10T21:00:22.112Z,3.09
2019-01-10T21:02:52.035Z,3.03
2019-01-10T21:05:21.465Z,2.93
2019-01-10T21:07:50.926Z,2.96
2019-01-10T21:10:22.210Z,2.89
2019-01-10T21:12:52.098Z,2.87
2019-01-10T21:15:24.045Z,2.87
2019-01-10T21:17:53.505Z,2.93
2019-01-10T21:20:22.899Z,2.75
2019-01-10T21:22:52.655Z,3.12
2019-01-10T21:25:22.523Z,3.10
2019-01-10T21:27:51.900Z,3.42
2019-01-10T21:30:23.570Z,3.16
2019-01-10T21:32:52.979Z,3.17
2019-01-10T21:35:22.428Z,3.14
2019-01-10T21:37:51.878Z,3.16
2019-01-10T21:40:23.741Z,3.17
2019-01-10T21:42:53.973Z,3.09
2019-01-10T21:45:23.839Z,3.12
2019-01-10T21:47:53.154Z,3.03
2019-01-10T21:50:25.109Z,3.11
2019-01-10T21:52:54.793Z,3.02
2019-01-10T21:55:24.153Z,3.15
2019-01-10T21:57:53.631Z,3.17
2019-01-10T22:00:28.764Z,3.19
2019-01-10T22:02:59.035Z,3.17
2019-01-10T22:05:28.372Z,3.17
2019-01-10T22:07:57.699Z,3.14
2019-01-10T22:10:28.470Z,3.11
2019-01-10T22:12:57.896Z,3.12
2019-01-10T22:15:27.153Z,3.06
2019-01-10T22:17:56.495Z,3.08
2019-01-10T22:20:26.701Z,3.12
2019-01-10T22:22:56.064Z,3.03
2019-01-10T22:25:25.425Z,3.00
2019-01-10T22:27:55.544Z,3.12
2019-01-10T22:30:24.861Z,3.03
2019-01-10T22:32:54.287Z,3.00
2019-01-10T22:35:23.821Z,2.96
2019-01-10T22:37:53.472Z,3.00
2019-01-10T22:40:23.848Z,3.10
2019-01-10T22:42:53.508Z,3.16
2019-01-10T22:45:23.874Z,2.97
2019-01-10T22:47:53.954Z,2.91
2019-01-10T22:50:23.920Z,2.65
2019-01-10T22:52:53.712Z,2.94
2019-01-10T22:55:23.025Z,2.90
2019-01-10T22:57:52.671Z,2.98
2019-01-10T23:01:01.133Z,3.02
2019-01-10T23:03:34.063Z,2.96
2019-01-10T23:06:03.466Z,2.82
2019-01-10T23:08:35.956Z,2.90
2019-01-10T23:11:05.837Z,2.86
2019-01-10T23:13:35.143Z,2.83
2019-01-10T23:16:04.884Z,2.85
2019-01-10T23:18:38.393Z,2.79
2019-01-10T23:21:07.859Z,2.82
2019-01-10T23:23:37.173Z,2.79
2019-01-10T23:26:06.487Z,2.88
2019-01-10T23:28:41.128Z,2.83
2019-01-10T23:31:13.505Z,2.63
2019-01-10T23:33:42.844Z,2.59
2019-01-10T23:36:12.149Z,2.56
2019-01-10T23:38:41.802Z,2.63
2019-01-10T23:41:11.110Z,2.58
2019-01-10T23:43:40.427Z,2.73
2019-01-10T23:46:10.597Z,2.70
2019-01-10T23:48:39.917Z,2.72
2019-01-10T23:51:09.224Z,2.87
2019-01-10T23:53:38.548Z,2.73
2019-01-10T23:56:07.883Z,2.82
2019-01-10T23:58:37.216Z,2.65
